createdAt,value
2023-09-26T00:03:08.357Z,10.60
2023-09-26T00:08:05.383Z,10.40
2023-09-26T00:15:31.907Z,11.00
2023-09-26T00:30:25.483Z,10.70
2023-09-26T00:32:55.017Z,10.70
2023-09-26T00:37:53.086Z,10.60
2023-09-26T00:40:23.456Z,10.60
2023-09-26T00:47:50.420Z,10.10
2023-09-26T00:50:23.225Z,10.10
2023-09-26T00:55:23.885Z,10.10
2023-09-26T01:05:19.807Z,10.30
2023-09-26T01:07:48.817Z,9.80
2023-09-26T01:10:17.354Z,10.40
2023-09-26T01:20:14.465Z,10.20
2023-09-26T01:22:47.621Z,9.40
2023-09-26T01:25:18.914Z,10.20
2023-09-26T01:30:17.938Z,10.60
2023-09-26T01:32:48.419Z,10.00
2023-09-26T01:35:16.458Z,10.40
2023-09-26T01:42:46.841Z,9.80
2023-09-26T01:45:14.999Z,9.30
2023-09-26T01:47:47.420Z,9.70
2023-09-26T01:52:44.635Z,9.40
2023-09-26T01:55:15.599Z,9.40
2023-09-26T02:00:15.529Z,9.50
2023-09-26T02:02:45.340Z,9.10
2023-09-26T02:05:14.991Z,9.90
2023-09-26T02:10:12.455Z,9.60
2023-09-26T02:12:44.567Z,9.40
2023-09-26T02:15:14.363Z,9.30
2023-09-26T02:17:43.434Z,9.10
2023-09-26T02:20:15.649Z,9.40
2023-09-26T02:22:44.976Z,9.50
2023-09-26T02:25:14.331Z,10.50
2023-09-26T02:27:44.169Z,9.70
2023-09-26T02:30:16.499Z,9.20
2023-09-26T02:35:14.543Z,9.60
2023-09-26T02:37:42.920Z,9.50
2023-09-26T02:40:12.114Z,10.40
2023-09-26T02:42:41.786Z,9.90
2023-09-26T02:45:10.781Z,9.40
2023-09-26T02:47:40.501Z,9.40
2023-09-26T02:50:09.752Z,9.80
2023-09-26T02:52:39.400Z,9.70
2023-09-26T02:55:08.636Z,9.90
2023-09-26T03:00:15.312Z,9.80
2023-09-26T03:02:45.740Z,9.70
2023-09-26T03:10:12.097Z,9.50
2023-09-26T03:15:09.863Z,9.40
2023-09-26T03:20:10.382Z,9.90
2023-09-26T03:25:07.877Z,9.60
2023-09-26T03:37:31.117Z,9.70
2023-09-26T03:44:56.140Z,9.40
2023-09-26T03:49:55.358Z,9.30
2023-09-26T03:54:53.882Z,9.10
2023-09-26T03:59:51.675Z,9.90
2023-09-26T04:12:14.997Z,9.00
2023-09-26T04:19:40.428Z,9.00
2023-09-26T04:22:08.628Z,9.30
2023-09-26T04:29:36.898Z,9.10
2023-09-26T04:34:33.569Z,9.20
2023-09-26T04:46:57.260Z,9.10
2023-09-26T05:04:17.213Z,8.80
2023-09-26T05:11:42.084Z,9.00
2023-09-26T05:21:36.893Z,8.90
2023-09-26T05:29:02.457Z,8.70
2023-09-26T05:31:32.872Z,8.30
2023-09-26T05:34:01.590Z,8.80
2023-09-26T05:36:29.779Z,9.00
2023-09-26T05:38:59.171Z,8.90
2023-09-26T05:41:27.271Z,8.10
2023-09-26T05:46:23.844Z,8.60
2023-09-26T05:56:18.662Z,8.60
2023-09-26T05:58:48.100Z,8.70
2023-09-26T06:03:45.037Z,9.00
2023-09-26T06:06:13.133Z,8.90
2023-09-26T06:08:41.185Z,8.70
2023-09-26T06:13:40.893Z,8.80
2023-09-26T06:21:06.700Z,8.90
2023-09-26T06:28:32.411Z,9.70
2023-09-26T06:31:07.756Z,12.00
2023-09-26T06:33:36.909Z,9.40
2023-09-26T06:36:13.777Z,9.60
2023-09-26T06:38:42.640Z,9.70
2023-09-26T06:43:39.141Z,10.10
2023-09-26T06:46:09.921Z,10.40
2023-09-26T06:48:39.506Z,10.90
2023-09-26T06:51:09.509Z,10.00
2023-09-26T06:53:38.414Z,10.90
2023-09-26T06:56:08.429Z,10.50
2023-09-26T06:58:37.764Z,11.10
2023-09-26T07:03:35.671Z,10.50
2023-09-26T07:06:10.290Z,11.20
2023-09-26T07:11:07.771Z,11.10
2023-09-26T07:16:17.542Z,11.00
2023-09-26T07:18:47.409Z,11.30
2023-09-26T07:26:15.566Z,12.10
2023-09-26T07:28:45.587Z,11.90
2023-09-26T07:31:14.877Z,11.80
2023-09-26T07:36:14.111Z,12.30
2023-09-26T07:46:08.309Z,12.30
2023-09-26T07:48:37.535Z,12.40
2023-09-26T07:51:07.055Z,12.10
2023-09-26T07:53:37.485Z,12.60
2023-09-26T08:01:08.539Z,13.10
2023-09-26T08:06:08.697Z,13.50
2023-09-26T08:08:38.458Z,13.20
2023-09-26T08:11:08.582Z,13.60
2023-09-26T08:13:38.220Z,13.50
2023-09-26T08:18:35.201Z,13.30
2023-09-26T08:21:03.230Z,13.70
2023-09-26T08:23:31.523Z,14.20
2023-09-26T08:26:03.086Z,13.80
2023-09-26T08:28:33.140Z,14.00
2023-09-26T08:31:06.725Z,14.00
2023-09-26T08:33:35.019Z,13.70
2023-09-26T08:36:03.213Z,14.60
2023-09-26T08:38:31.620Z,14.40
2023-09-26T08:41:02.120Z,15.50
2023-09-26T08:45:59.210Z,15.70
2023-09-26T08:55:52.521Z,15.30
2023-09-26T08:58:23.076Z,15.20
2023-09-26T09:05:48.488Z,16.00
2023-09-26T09:08:21.262Z,16.20
2023-09-26T09:10:50.927Z,15.90
2023-09-26T09:13:30.754Z,17.50
2023-09-26T09:16:13.339Z,18.50
2023-09-26T09:18:44.176Z,18.70
2023-09-26T09:21:27.078Z,20.50
2023-09-26T09:23:57.168Z,22.70
2023-09-26T09:26:26.225Z,23.90
2023-09-26T09:28:56.887Z,25.60
2023-09-26T09:31:25.206Z,25.80
2023-09-26T09:33:56.799Z,26.40
2023-09-26T09:36:25.462Z,26.50
2023-09-26T09:38:53.749Z,26.90
2023-09-26T09:41:22.123Z,27.10
2023-09-26T09:43:50.521Z,27.20
2023-09-26T09:46:21.498Z,26.80
2023-09-26T09:48:53.785Z,26.00
2023-09-26T09:51:22.644Z,25.90
2023-09-26T09:53:56.115Z,26.00
2023-09-26T09:56:25.628Z,26.10
2023-09-26T09:58:58.456Z,26.20
2023-09-26T10:01:29.004Z,25.90
2023-09-26T10:03:57.263Z,25.70
2023-09-26T10:06:25.476Z,25.70
2023-09-26T10:08:55.074Z,26.20
2023-09-26T10:11:23.735Z,26.80
2023-09-26T10:13:52.524Z,26.70
2023-09-26T10:16:23.251Z,26.70
2023-09-26T10:18:53.387Z,26.80
2023-09-26T10:21:26.451Z,27.00
2023-09-26T10:24:30.264Z,26.90
2023-09-26T10:27:17.316Z,26.80
2023-09-26T10:29:55.801Z,26.40
2023-09-26T10:32:31.821Z,26.40
2023-09-26T10:35:03.118Z,27.00
2023-09-26T10:37:32.106Z,27.20
2023-09-26T10:40:00.165Z,27.10
2023-09-26T10:44:59.171Z,27.10
2023-09-26T10:47:27.627Z,27.40
2023-09-26T10:49:58.126Z,27.30
2023-09-26T10:52:31.104Z,27.60
2023-09-26T10:55:00.083Z,28.00
2023-09-26T10:57:28.163Z,28.20
2023-09-26T10:59:56.473Z,28.00
2023-09-26T11:02:25.034Z,27.90
2023-09-26T11:04:53.468Z,27.80
2023-09-26T11:07:22.191Z,27.80
2023-09-26T11:09:51.748Z,27.80
2023-09-26T11:12:19.891Z,28.00
2023-09-26T11:14:48.061Z,28.10
2023-09-26T11:17:16.155Z,28.10
2023-09-26T11:19:44.241Z,28.00
2023-09-26T11:22:12.678Z,28.10
2023-09-26T11:24:40.736Z,28.10
2023-09-26T11:27:10.526Z,27.70
2023-09-26T11:29:39.141Z,30.80
2023-09-26T11:32:07.928Z,25.80
2023-09-26T11:34:37.213Z,25.90
2023-09-26T11:37:07.410Z,25.80
2023-09-26T11:39:35.501Z,26.00
2023-09-26T11:42:05.305Z,25.60
2023-09-26T11:44:34.878Z,25.80
2023-09-26T11:47:04.325Z,26.10
2023-09-26T11:49:32.634Z,26.50
2023-09-26T11:52:01.801Z,26.30
2023-09-26T11:54:30.088Z,26.20
2023-09-26T11:56:58.825Z,26.40
2023-09-26T11:59:26.921Z,26.50
2023-09-26T12:02:00.112Z,26.60
2023-09-26T12:04:29.695Z,26.60
2023-09-26T12:06:57.823Z,26.80
2023-09-26T12:09:25.844Z,26.50
2023-09-26T12:11:54.710Z,26.30
2023-09-26T12:14:23.220Z,26.40
2023-09-26T12:16:53.707Z,26.50
2023-09-26T12:19:24.795Z,26.50
2023-09-26T12:21:53.117Z,26.50
2023-09-26T12:24:21.436Z,26.40
2023-09-26T12:26:49.557Z,26.30
2023-09-26T12:29:18.078Z,26.40
2023-09-26T12:31:46.595Z,26.30
2023-09-26T12:34:15.978Z,26.30
2023-09-26T12:36:45.499Z,26.20
2023-09-26T12:39:13.753Z,26.00
2023-09-26T12:41:41.869Z,25.80
2023-09-26T12:44:11.563Z,25.70
2023-09-26T12:46:40.592Z,25.90
2023-09-26T12:49:09.733Z,26.10
2023-09-26T12:51:38.005Z,26.40
2023-09-26T12:54:07.938Z,26.30
2023-09-26T12:56:36.023Z,26.40
2023-09-26T12:59:04.363Z,26.10
2023-09-26T13:01:32.872Z,26.10
2023-09-26T13:04:01.308Z,26.10
2023-09-26T13:06:29.632Z,26.00
2023-09-26T13:08:57.651Z,26.00
2023-09-26T13:11:27.099Z,25.80
2023-09-26T13:13:55.227Z,25.80
2023-09-26T13:16:23.500Z,25.80
2023-09-26T13:18:52.142Z,25.90
2023-09-26T13:21:20.207Z,26.00
2023-09-26T13:23:48.293Z,26.30
2023-09-26T13:26:16.318Z,26.40
2023-09-26T13:28:46.823Z,26.30
2023-09-26T13:31:15.026Z,26.40
2023-09-26T13:33:43.113Z,26.30
2023-09-26T13:36:11.166Z,26.10
2023-09-26T13:38:39.240Z,25.90
2023-09-26T13:41:07.552Z,25.90
2023-09-26T13:43:36.241Z,26.00
2023-09-26T13:46:05.836Z,26.00
2023-09-26T13:48:33.845Z,25.80
2023-09-26T13:51:02.004Z,25.70
2023-09-26T13:53:31.246Z,25.40
2023-09-26T13:55:59.278Z,25.70
2023-09-26T13:58:27.435Z,25.70
2023-09-26T14:00:55.468Z,25.80
2023-09-26T14:03:26.012Z,25.90
2023-09-26T14:05:54.233Z,26.10
2023-09-26T14:08:22.505Z,26.30
2023-09-26T14:10:50.552Z,26.70
2023-09-26T14:13:18.617Z,26.90
2023-09-26T14:15:46.645Z,27.00
2023-09-26T14:18:14.733Z,27.00
2023-09-26T14:20:44.151Z,27.10
2023-09-26T14:23:12.189Z,27.00
2023-09-26T14:25:40.265Z,26.90
2023-09-26T14:28:08.424Z,26.60
2023-09-26T14:30:36.582Z,26.50
2023-09-26T14:33:04.851Z,26.20
2023-09-26T14:35:33.059Z,26.20
2023-09-26T14:38:02.673Z,26.00
2023-09-26T14:40:30.975Z,26.30
2023-09-26T14:42:59.217Z,26.30
2023-09-26T14:45:31.121Z,26.40
2023-09-26T14:48:05.619Z,26.50
2023-09-26T14:50:34.000Z,26.40
2023-09-26T14:53:03.624Z,26.40
2023-09-26T14:55:31.737Z,26.30
2023-09-26T14:57:59.718Z,26.20
2023-09-26T15:00:27.777Z,26.20
2023-09-26T15:02:56.020Z,25.90
2023-09-26T15:05:24.248Z,26.00
2023-09-26T15:07:52.377Z,26.00
2023-09-26T15:10:21.875Z,26.00
2023-09-26T15:12:49.899Z,25.80
2023-09-26T15:15:18.091Z,25.60
2023-09-26T15:17:46.172Z,25.50
2023-09-26T15:20:14.364Z,25.50
2023-09-26T15:22:42.413Z,25.40
2023-09-26T15:25:11.035Z,25.20
2023-09-26T15:27:40.682Z,25.10
2023-09-26T15:30:10.188Z,24.90
2023-09-26T15:32:38.391Z,24.70
2023-09-26T15:35:07.548Z,24.50
2023-09-26T15:37:35.689Z,24.40
2023-09-26T15:40:04.895Z,25.90
2023-09-26T15:42:35.103Z,24.20
2023-09-26T15:45:05.788Z,24.10
2023-09-26T15:47:33.897Z,23.90
2023-09-26T15:50:02.000Z,23.70
2023-09-26T15:52:30.070Z,22.90
2023-09-26T15:54:58.667Z,23.40
2023-09-26T15:57:26.726Z,23.50
2023-09-26T15:59:54.801Z,23.00
2023-09-26T16:02:24.340Z,22.90
2023-09-26T16:04:52.568Z,22.20
2023-09-26T16:07:20.760Z,22.70
2023-09-26T16:09:48.731Z,21.70
2023-09-26T16:12:16.806Z,23.10
2023-09-26T16:14:44.895Z,22.40
2023-09-26T16:17:13.496Z,21.30
2023-09-26T16:19:42.972Z,22.40
2023-09-26T16:22:11.021Z,21.60
2023-09-26T16:24:39.157Z,22.10
2023-09-26T16:27:07.165Z,21.60
2023-09-26T16:29:35.416Z,21.50
2023-09-26T16:32:05.748Z,21.40
2023-09-26T16:34:33.909Z,21.50
2023-09-26T16:37:03.333Z,21.10
2023-09-26T16:42:00.073Z,20.10
2023-09-26T16:44:28.102Z,21.10
2023-09-26T16:49:24.933Z,21.00
2023-09-26T16:51:53.065Z,20.70
2023-09-26T16:54:22.411Z,19.90
2023-09-26T16:59:19.212Z,20.10
2023-09-26T17:06:45.350Z,19.70
2023-09-26T17:11:43.154Z,19.50
2023-09-26T17:16:40.330Z,19.70
2023-09-26T17:19:08.651Z,19.40
2023-09-26T17:24:05.864Z,19.10
2023-09-26T17:26:33.889Z,18.30
2023-09-26T17:29:03.417Z,19.00
2023-09-26T17:31:31.830Z,18.50
2023-09-26T17:33:59.955Z,18.70
2023-09-26T17:41:25.465Z,18.80
2023-09-26T17:46:25.601Z,19.00
2023-09-26T17:48:53.688Z,17.90
2023-09-26T17:53:51.336Z,18.20
2023-09-26T17:58:49.786Z,18.10
2023-09-26T18:03:49.732Z,17.40
2023-09-26T18:16:12.171Z,17.60
2023-09-26T18:21:09.990Z,17.00
2023-09-26T18:31:05.641Z,17.90
2023-09-26T18:33:34.015Z,18.20
2023-09-26T18:36:07.061Z,17.90
2023-09-26T18:38:39.033Z,17.50
2023-09-26T18:41:07.228Z,17.70
2023-09-26T18:43:36.271Z,17.80
2023-09-26T18:48:32.692Z,17.70
2023-09-26T18:51:04.420Z,17.30
2023-09-26T18:56:02.728Z,17.10
2023-09-26T18:58:30.770Z,17.30
2023-09-26T19:00:58.919Z,16.70
2023-09-26T19:05:56.857Z,17.30
2023-09-26T19:08:25.085Z,16.50
2023-09-26T19:13:23.701Z,17.20
2023-09-26T19:18:20.113Z,17.20
2023-09-26T19:23:17.075Z,17.00
2023-09-26T19:30:47.252Z,17.10
2023-09-26T19:33:15.617Z,16.40
2023-09-26T19:38:12.633Z,16.40
2023-09-26T19:48:08.141Z,16.60
2023-09-26T19:58:01.380Z,16.70
2023-09-26T20:00:29.500Z,17.00
2023-09-26T20:02:57.628Z,16.60
2023-09-26T20:05:27.190Z,16.40
2023-09-26T20:07:55.332Z,16.70
2023-09-26T20:10:23.397Z,16.40
2023-09-26T20:12:52.124Z,16.90
2023-09-26T20:17:53.038Z,16.80
2023-09-26T20:22:51.423Z,16.80
2023-09-26T20:25:20.026Z,16.40
2023-09-26T20:40:14.012Z,16.40
2023-09-26T20:42:42.058Z,16.00
2023-09-26T20:45:10.830Z,16.20
2023-09-26T20:50:08.062Z,16.40
2023-09-26T20:55:04.922Z,16.20
2023-09-26T20:57:34.466Z,16.50
2023-09-26T21:00:03.049Z,15.90
2023-09-26T21:09:56.563Z,16.10
2023-09-26T21:14:54.451Z,15.50
2023-09-26T21:22:19.318Z,16.30
2023-09-26T21:24:47.360Z,15.90
2023-09-26T21:29:44.514Z,16.00
2023-09-26T21:32:13.968Z,15.60
2023-09-26T21:39:38.797Z,15.10
2023-09-26T21:44:35.296Z,16.10
2023-09-26T21:47:03.726Z,15.80
2023-09-26T21:49:33.170Z,15.40
2023-09-26T21:52:01.229Z,15.50
2023-09-26T21:56:58.271Z,15.20
2023-09-26T21:59:26.502Z,14.80
2023-09-26T22:06:52.895Z,15.30
2023-09-26T22:21:46.884Z,15.50
2023-09-26T22:24:17.001Z,15.40
2023-09-26T22:26:45.057Z,14.90
2023-09-26T22:29:13.692Z,14.40
2023-09-26T22:34:10.353Z,14.90
2023-09-26T22:41:37.724Z,15.20
2023-09-26T22:44:06.279Z,15.30
2023-09-26T22:46:34.496Z,15.10
2023-09-26T22:51:32.035Z,15.10
2023-09-26T22:54:00.080Z,14.70
2023-09-26T22:56:28.244Z,15.10
2023-09-26T22:58:57.839Z,14.50
2023-09-26T23:01:25.992Z,14.90
2023-09-26T23:03:54.205Z,14.60
2023-09-26T23:16:19.496Z,15.00
2023-09-26T23:18:49.316Z,14.90
2023-09-26T23:23:47.106Z,14.50
2023-09-26T23:28:46.984Z,13.70
2023-09-26T23:31:15.447Z,14.00
2023-09-26T23:33:44.910Z,14.00
2023-09-26T23:41:11.189Z,14.30
2023-09-26T23:46:07.723Z,14.10
2023-09-26T23:48:36.113Z,14.00
2023-09-26T23:51:13.430Z,13.90
2023-09-26T23:56:10.398Z,14.20
